createdAt,value
2022-09-02T00:05:05.326Z,0.5217391304347826
2022-09-02T00:12:25.406Z,0.6287625418060201
2022-09-02T00:18:45.832Z,0.7424749163879598
2022-09-02T00:25:14.048Z,0.5250836120401338
2022-09-02T00:31:34.642Z,0.9899665551839465
2022-09-02T00:38:00.744Z,0.7993311036789298
2022-09-02T00:44:21.925Z,1.1973244147157192
2022-09-02T00:51:41.846Z,0.8695652173913043
2022-09-02T00:58:03.285Z,0.9899665551839465
2022-09-02T01:04:29.815Z,0.842809364548495
2022-09-02T01:10:50.700Z,1.1772575250836121
2022-09-02T01:17:11.719Z,2.0434782608695654
2022-09-02T01:23:42.131Z,1.8729096989966556
2022-09-02T01:30:03.155Z,1.2274247491638797
2022-09-02T01:36:23.465Z,1.5150501672240804
2022-09-02T01:42:44.338Z,1.2040133779264215
2022-09-02T01:49:05.067Z,1.137123745819398
2022-09-02T01:55:25.236Z,1.5150501672240804
2022-09-02T02:01:45.787Z,2.0100334448160537
2022-09-02T02:17:53.655Z,1.6354515050167224
2022-09-02T02:24:19.971Z,1.548494983277592
2022-09-02T02:30:40.845Z,1.585284280936455
2022-09-02T02:37:01.717Z,1.8729096989966556
2022-09-02T02:43:22.629Z,1.7224080267558528
2022-09-02T02:49:43.276Z,1.9966555183946488
2022-09-02T02:56:04.009Z,2.100334448160535
2022-09-02T03:02:24.931Z,2.0100334448160537
2022-09-02T03:10:31.588Z,1.9698996655518395
2022-09-02T03:16:51.562Z,1.8896321070234114
2022-09-02T03:23:19.203Z,2.2474916387959865
2022-09-02T03:29:46.816Z,2.5351170568561874
2022-09-02T03:36:07.596Z,2.274247491638796
2022-09-02T03:42:28.174Z,2.254180602006689
2022-09-02T03:48:48.395Z,2.2240802675585285
2022-09-02T03:55:08.870Z,2.3578595317725752
2022-09-02T04:04:44.021Z,2.4381270903010033
2022-09-02T04:11:04.278Z,2.3076923076923075
2022-09-02T04:17:24.953Z,2.8160535117056855
2022-09-02T04:23:53.506Z,3.0735785953177257
2022-09-02T04:30:14.343Z,2.9364548494983276
2022-09-02T04:36:35.776Z,2.6755852842809364
2022-09-02T04:42:56.417Z,3.568561872909699
2022-09-02T04:49:17.459Z,3.260869565217391
2022-09-02T04:55:38.237Z,3.2842809364548495
2022-09-02T05:01:58.996Z,3.2441471571906355
2022-09-02T05:08:21.462Z,3.7725752508361206
2022-09-02T05:14:42.653Z,3.6555183946488294
2022-09-02T05:21:03.147Z,3.9063545150501673
2022-09-02T05:27:26.909Z,3.8963210702341136
2022-09-02T05:33:48.484Z,3.6555183946488294
2022-09-02T05:40:09.827Z,3.745819397993311
2022-09-02T05:46:35.788Z,3.7859531772575252
2022-09-02T05:52:56.757Z,3.6923076923076925
2022-09-02T05:59:17.201Z,4.321070234113712
2022-09-02T06:06:38.333Z,4.3076923076923075
2022-09-02T06:15:52.863Z,3.842809364548495
2022-09-02T06:27:36.052Z,4.247491638795987
2022-09-02T06:33:56.846Z,4.31438127090301
2022-09-02T06:40:18.190Z,4.187290969899665
2022-09-02T06:46:39.301Z,4.551839464882943
2022-09-02T06:53:02.184Z,4.260869565217392
2022-09-02T06:59:23.305Z,4.234113712374582
2022-09-02T07:06:30.124Z,4.34113712374582
2022-09-02T07:14:18.093Z,3.745819397993311
2022-09-02T07:20:38.783Z,5.745819397993311
2022-09-02T07:27:55.370Z,4.792642140468227
2022-09-02T07:34:16.131Z,4.461538461538462
2022-09-02T07:40:36.698Z,4.792642140468227
2022-09-02T08:01:50.701Z,3.321070234113712
2022-09-02T08:12:25.881Z,3.408026755852843
2022-09-02T08:18:46.661Z,3.190635451505017
2022-09-02T08:25:12.775Z,3.3545150501672243
2022-09-02T08:40:50.635Z,3.408026755852843
2022-09-02T08:47:11.905Z,3.648829431438127
2022-09-02T08:53:33.718Z,3.705685618729097
2022-09-02T08:59:54.485Z,3.9163879598662206
2022-09-02T09:07:38.434Z,3.5418060200668897
2022-09-02T09:17:50.543Z,3.7926421404682276
2022-09-02T09:24:21.637Z,4.030100334448161
2022-09-02T09:30:42.933Z,3.6555183946488294
2022-09-02T09:37:04.543Z,3.7959866220735785
2022-09-02T09:43:26.252Z,3.7357859531772575
2022-09-02T09:49:47.459Z,3.5250836120401337
2022-09-02T09:56:09.604Z,3.17056856187291
2022-09-02T10:02:34.474Z,3.20066889632107
2022-09-02T10:19:27.910Z,3.5250836120401337
2022-09-02T10:25:54.080Z,3.1438127090301005
2022-09-02T10:36:20.810Z,2.9498327759197323
2022-09-02T10:42:43.062Z,3.0869565217391304
2022-09-02T10:49:04.979Z,2.802675585284281
2022-09-02T10:55:26.132Z,2.160535117056856
2022-09-02T11:01:47.421Z,2.3377926421404682
2022-09-02T11:08:08.961Z,3.0334448160535117
2022-09-02T11:14:29.769Z,3.1939799331103678
2022-09-02T11:25:02.300Z,5.010033444816053
2022-09-02T11:33:05.914Z,5.3076923076923075
2022-09-02T11:41:37.582Z,5.5719063545150505
2022-09-02T11:47:59.555Z,7.210702341137123
2022-09-02T11:54:20.768Z,5.678929765886288
2022-09-02T12:00:41.783Z,3.8662207357859533
2022-09-02T12:07:05.758Z,3.7123745819397995
2022-09-02T12:15:22.388Z,3.859531772575251
2022-09-02T12:21:43.869Z,2.237458193979933
2022-09-02T12:28:10.482Z,2.6354515050167224
2022-09-02T12:34:32.784Z,2.31438127090301
2022-09-02T12:40:54.513Z,2.3846153846153846
2022-09-02T12:47:16.869Z,2.809364548494983
2022-09-02T12:53:38.921Z,2.117056856187291
2022-09-02T13:00:00.843Z,1.806020066889632
2022-09-02T13:06:22.752Z,2.2642140468227425
2022-09-02T13:12:43.837Z,2.3812709030100336
2022-09-02T13:19:05.973Z,1.6020066889632107
2022-09-02T13:25:33.849Z,2.1337792642140467
2022-09-02T13:31:56.185Z,2.240802675585284
2022-09-02T13:38:20.910Z,2.367892976588629
2022-09-02T13:50:53.473Z,2.8662207357859533
2022-09-02T14:01:04.014Z,2.331103678929766
2022-09-02T14:07:25.023Z,1.6956521739130435
2022-09-02T14:13:46.083Z,2.0735785953177257
2022-09-02T14:20:07.823Z,2.6555183946488294
2022-09-02T14:26:36.318Z,2.8762541806020065
2022-09-02T14:32:57.175Z,2.729096989966555
2022-09-02T14:39:20.041Z,2.508361204013378
2022-09-02T14:50:11.651Z,3.0702341137123748
2022-09-02T14:56:32.891Z,3.2876254180602005
2022-09-02T15:02:54.051Z,3.1839464882943145
2022-09-02T15:09:16.557Z,3.157190635451505
2022-09-02T15:15:38.908Z,3.5217391304347827
2022-09-02T15:21:59.869Z,2.6588628762541804
2022-09-02T15:28:31.472Z,2.8561872909698995
2022-09-02T15:38:02.174Z,3.020066889632107
2022-09-02T15:44:23.521Z,3.0267558528428093
2022-09-02T15:50:46.653Z,2.612040133779264
2022-09-02T15:57:09.467Z,2.849498327759197
2022-09-02T16:04:48.667Z,2.9966555183946486
2022-09-02T16:11:10.891Z,3.0434782608695654
2022-09-02T16:17:32.444Z,2.9331103678929766
2022-09-02T16:24:05.263Z,2.4180602006688963
2022-09-02T16:30:28.735Z,2.4648829431438126
2022-09-02T16:36:50.186Z,2.6187290969899664
2022-09-02T16:43:15.591Z,2.74247491638796
2022-09-02T16:49:37.517Z,2.31438127090301
2022-09-02T16:55:59.256Z,2.6220735785953178
2022-09-02T17:02:21.479Z,2.869565217391304
2022-09-02T17:08:55.455Z,2.652173913043478
2022-09-02T17:15:17.221Z,2.387959866220736
2022-09-02T17:21:38.572Z,2.491638795986622
2022-09-02T17:28:00.809Z,3.3344481605351173
2022-09-02T17:34:22.974Z,3.016722408026756
2022-09-02T17:40:44.742Z,2.9264214046822743
2022-09-02T17:47:06.756Z,2.7859531772575252
2022-09-02T17:53:28.443Z,3.2441471571906355
2022-09-02T17:59:50.093Z,4.327759197324415
2022-09-02T18:06:11.765Z,3.8561872909698995
2022-09-02T18:12:33.439Z,3.551839464882943
2022-09-02T18:22:35.861Z,2.769230769230769
2022-09-02T18:28:58.015Z,2.8963210702341136
2022-09-02T18:35:19.532Z,3.20066889632107
2022-09-02T18:41:41.472Z,4.230769230769231
2022-09-02T18:48:03.876Z,4.508361204013378
2022-09-02T18:56:40.525Z,3.5384615384615383
2022-09-02T19:03:02.027Z,3.5418060200668897
2022-09-02T19:09:24.147Z,4.478260869565218
2022-09-02T19:15:45.697Z,3.4548494983277593
2022-09-02T19:22:07.536Z,2.963210702341137
2022-09-02T19:28:29.301Z,3.5183946488294313
2022-09-02T19:34:51.261Z,2.963210702341137
2022-09-02T19:41:12.706Z,3.240802675585284
2022-09-02T19:55:22.855Z,2.3846153846153846
2022-09-02T20:01:45.453Z,2.8762541806020065
2022-09-02T20:14:46.939Z,2.9063545150501673
2022-09-02T20:36:11.420Z,2.528428093645485
2022-09-02T20:48:41.763Z,2.3377926421404682
2022-09-02T20:57:56.477Z,2.0100334448160537
2022-09-02T21:04:17.985Z,1.8729096989966556
2022-09-02T21:10:40.298Z,2.2274247491638794
2022-09-02T21:17:30.493Z,2.05685618729097
2022-09-02T21:25:32.237Z,1.5719063545150502
2022-09-02T21:37:52.794Z,1.7826086956521738
2022-09-02T21:44:15.127Z,2.260869565217391
2022-09-02T21:53:36.864Z,2.2842809364548495
2022-09-02T22:03:57.248Z,2.20066889632107
2022-09-02T22:10:19.083Z,1.7892976588628762
2022-09-02T22:16:41.566Z,2.1538461538461537
2022-09-02T22:23:09.392Z,1.9832775919732442
2022-09-02T22:29:32.138Z,2.2274247491638794
2022-09-02T22:35:56.184Z,2.3277591973244145
2022-09-02T22:42:21.403Z,2.240802675585284
2022-09-02T22:48:44.672Z,2.347826086956522
2022-09-02T22:55:07.236Z,2.0702341137123748
2022-09-02T23:01:29.216Z,2.528428093645485
2022-09-02T23:07:50.856Z,2.612040133779264
2022-09-02T23:14:12.825Z,2.25752508361204
2022-09-02T23:30:30.051Z,2.5150501672240804
2022-09-02T23:36:52.472Z,2.3612040133779266
2022-09-02T23:47:07.673Z,2.5852842809364547
2022-09-02T23:53:29.476Z,2.729096989966555
2022-09-02T23:59:54.722Z,2.705685618729097
